Latest Weather Observations for Strathalbyn

IDS60901

Issued at 9:01 am CST Sunday 24 June 2018 (issued every 10 minutes, with the page automatically refreshed every 10 minutes)

About weather observations | Map of Adelaide area stations | Latest observations for Adelaide area | Other Formats
Station Details ID: 024580 Name: STRATHALBYN RACECOURSE Lat: -35.28 Lon: 138.89 Height: 58.0 m
Data from the previous 72 hours. | See also: Recent months at Strathalbyn
Date/Time
CST
Temp
°C
App
Temp
°C
Dew
Point
°C
Rel
Hum
%
Delta-T
°C
Wind Press
QNH
hPa
Press
MSL
hPa
Rain since
9am
mm
Dir  Spd
km/h
Gust
km/h
Spd
kts
Gust
kts
24/09:00am 9.9 8.7 9.6 98 0.1 S 6 9 3 5 1032.4 1032.5 1.0
24/08:30am 9.9 8.7 9.6 98 0.1 SE 6 7 3 4 1032.2 1032.3 0.8
24/08:00am 9.9 8.5 9.6 98 0.2 SE 7 9 4 5 1031.9 1032.0 0.6
24/07:30am 9.8 8.4 9.5 98 0.1 SSE 7 11 4 6 1031.5 1031.6 0.4
24/07:00am 9.9 8.5 9.6 98 0.2 SSE 7 11 4 6 1031.2 1031.3 0.4
24/06:30am 9.9 8.1 9.6 98 0.1 SSE 9 11 5 6 1030.9 1031.0 0.4
24/06:00am 10.2 8.9 9.9 98 0.2 SE 7 11 4 6 1030.6 1030.7 0.4
24/05:30am 10.3 9.0 10.0 98 0.2 SSE 7 11 4 6 1030.4 1030.5 0.4
24/05:00am 10.3 9.0 10.0 98 0.2 SE 7 9 4 5 1030.1 1030.2 0.4
24/04:30am 10.3 8.3 10.0 98 0.2 SSE 11 13 6 7 1030.0 1030.1 0.4
24/04:00am 10.3 8.6 10.0 98 0.2 SSE 9 13 5 7 1030.1 1030.2 0.2
24/03:30am 10.5 8.9 10.2 98 0.2 SSE 9 9 5 5 1030.0 1030.1 0.2
24/03:00am 10.5 8.1 10.2 98 0.2 SSE 13 15 7 8 1030.0 1030.1 0.2
24/02:30am 10.6 8.6 10.3 98 0.2 S 11 15 6 8 1030.0 1030.1 0.2
24/02:00am 10.6 7.9 10.3 98 0.2 SSE 15 20 8 11 1029.9 1030.0 0.2
24/01:30am 10.8 8.1 10.3 97 0.3 SSE 15 19 8 10 1029.8 1029.9 0.2
24/01:00am 11.4 8.9 10.9 97 0.3 S 15 20 8 11 1029.8 1029.9 0.2
24/12:30am 11.7 9.6 11.2 97 0.3 S 13 17 7 9 1029.7 1029.8 0.2
24/12:00am 11.8 10.1 11.3 97 0.3 SSW 11 15 6 8 1029.8 1029.9 0.2
 
Date/Time
CST
Temp
°C
App
Temp
°C
Dew
Point
°C
Rel
Hum
%
Delta-T
°C
Wind Press
QNH
hPa
Press
MSL
hPa
Rain since
9am
mm
Dir  Spd
km/h
Gust
km/h
Spd
kts
Gust
kts
23/11:30pm 11.8 10.1 11.2 96 0.3 SW 11 15 6 8 1029.8 1029.9 0.2
23/11:00pm 11.8 9.7 11.2 96 0.3 SSW 13 15 7 8 1029.8 1029.9 0.2
23/10:30pm 12.0 10.0 11.4 96 0.3 SSW 13 19 7 10 1029.6 1029.7 0.2
23/10:00pm 12.0 10.0 11.4 96 0.3 SW 13 19 7 10 1029.4 1029.5 0.2
23/09:30pm 12.1 10.4 11.3 95 0.4 SW 11 17 6 9 1029.3 1029.4 0.0
23/09:00pm 12.0 9.7 10.6 91 0.7 WSW 13 17 7 9 1029.2 1029.3 0.0
23/08:30pm 11.7 8.7 9.1 84 1.3 WSW 15 20 8 11 1029.2 1029.3 0.0
23/08:00pm 10.8 8.1 7.3 79 1.7 WSW 11 13 6 7 1029.0 1029.1 0.0
23/07:30pm 10.8 8.0 7.1 78 1.8 W 11 13 6 7 1028.8 1028.9 0.0
23/07:00pm 10.8 8.4 6.9 77 1.9 WSW 9 11 5 6 1028.6 1028.7 0.0
23/06:30pm 11.2 8.9 7.5 78 1.8 SSW 9 13 5 7 1028.4 1028.5 0.0
23/06:00pm 12.0 10.1 7.7 75 2.1 SW 7 9 4 5 1028.1 1028.2 0.0
23/05:30pm 12.5 10.7 7.8 73 2.3 WSW 7 9 4 5 1027.8 1027.9 0.0
23/05:00pm 13.3 11.5 8.0 70 2.6 WSW 7 7 4 4 1027.7 1027.7 0.0
23/04:30pm 13.8 11.7 8.2 69 2.8 SW 9 11 5 6 1027.6 1027.6 0.0
23/04:00pm 14.4 11.9 8.1 66 3.2 SW 11 15 6 8 1027.4 1027.4 0.0
23/03:30pm 15.3 13.1 7.8 61 3.7 SW 9 15 5 8 1027.1 1027.1 0.0
23/03:00pm 15.5 12.5 7.8 60 3.8 W 13 17 7 9 1027.1 1027.1 0.0
23/02:30pm 15.3 12.2 7.3 59 3.9 W 13 19 7 10 1027.1 1027.1 0.0
23/02:00pm 15.7 12.6 7.2 57 4.2 W 13 17 7 9 1027.0 1027.0 0.0
23/01:30pm 15.2 12.5 7.5 60 3.8 SW 11 17 6 9 1027.2 1027.2 0.0
23/01:00pm 15.8 13.0 7.1 56 4.3 SW 11 17 6 9 1027.2 1027.2 0.0
23/12:30pm 15.4 13.0 6.9 57 4.2 SW 9 11 5 6 1027.5 1027.5 0.0
23/12:00pm 15.5 13.3 8.0 61 3.7 W 9 13 5 7 1027.7 1027.7 0.0
23/11:30am 14.6 12.0 7.9 64 3.3 W 11 13 6 7 1028.0 1028.1 0.0
23/11:00am 14.7 12.0 7.5 62 3.6 WSW 11 15 6 8 1028.1 1028.2 0.0
23/10:30am 14.9 13.0 7.5 61 3.6 NNW 7 11 4 6 1028.1 1028.2 0.0
23/10:00am 14.5 11.8 7.3 62 3.5 NNW 11 15 6 8 1028.0 1028.1 0.0
23/09:30am 13.3 12.5 6.6 64 3.2 CALM 0 6 0 3 1027.9 1028.0 0.0
23/09:00am 11.7 10.7 5.8 67 2.7 CALM 0 0 0 0 1027.7 1027.7 0.0
23/08:30am 9.5 8.4 5.1 74 2.0 CALM 0 0 0 0 1027.5 1027.5 0.0
23/08:00am 8.5 6.8 3.9 73 2.0 WNW 2 7 1 4 1027.4 1027.4 0.0
23/07:30am 8.6 4.9 4.2 74 1.9 NNW 13 15 7 8 1026.9 1026.9 0.0
23/07:00am 8.2 4.4 3.7 73 1.9 NNW 13 15 7 8 1026.7 1026.7 0.0
23/06:30am 8.7 5.2 3.5 70 2.2 NNW 11 13 6 7 1026.4 1026.4 0.0
23/06:00am 9.5 6.2 4.5 71 2.2 NNW 11 13 6 7 1026.1 1026.1 0.0
23/05:30am 6.9 4.4 3.5 79 1.4 ENE 6 9 3 5 1026.0 1026.0 0.0
23/05:00am 4.7 1.7 2.2 84 1.0 NNE 7 9 4 5 1025.9 1025.9 0.0
23/04:30am 4.7 1.8 2.6 86 0.8 NE 7 9 4 5 1025.7 1025.7 0.0
23/04:00am 4.0 0.9 1.5 84 1.0 NNE 7 9 4 5 1025.5 1025.5 0.0
23/03:30am 5.8 3.0 3.1 83 1.1 N 7 11 4 6 1025.5 1025.5 0.0
23/03:00am 5.7 3.1 3.0 83 1.1 NE 6 9 3 5 1025.5 1025.5 0.0
23/02:30am 4.2 2.3 0.7 78 1.3 CALM 0 4 0 2 1025.7 1025.7 0.0
23/02:00am 4.4 1.0 1.6 82 1.1 ENE 9 11 5 6 1025.8 1025.8 0.0
23/01:30am 4.8 3.0 1.1 77 1.4 CALM 0 0 0 0 1025.9 1025.9 0.0
23/01:00am 4.4 1.2 0.7 77 1.4 NNE 7 9 4 5 1025.9 1025.9 0.0
23/12:30am 4.9 1.3 0.5 73 1.7 NE 9 9 5 5 1026.1 1026.1 0.0
23/12:00am 5.0 3.1 0.8 74 1.6 CALM 0 4 0 2 1026.3 1026.3 0.0
 
Date/Time
CST
Temp
°C
App
Temp
°C
Dew
Point
°C
Rel
Hum
%
Delta-T
°C
Wind Press
QNH
hPa
Press
MSL
hPa
Rain since
9am
mm
Dir  Spd
km/h
Gust
km/h
Spd
kts
Gust
kts
22/11:30pm 5.3 2.1 0.7 72 1.8 NNE 7 7 4 4 1026.5 1026.5 0.0
22/11:00pm 5.2 2.2 0.8 73 1.7 NE 6 7 3 4 1026.7 1026.7 0.0
22/10:30pm 5.0 1.8 0.9 75 1.6 NNE 7 9 4 5 1026.7 1026.7 0.0
22/10:00pm 5.1 1.6 1.0 75 1.6 N 9 9 5 5 1026.5 1026.5 0.0
22/09:30pm 7.1 3.9 1.0 65 2.4 NNE 7 9 4 5 1026.7 1026.7 0.0
22/09:00pm 5.2 2.2 1.1 75 1.6 NNE 6 7 3 4 1026.7 1026.7 0.0
22/08:30pm 6.2 3.1 1.5 72 1.9 N 7 9 4 5 1026.6 1026.6 0.0
22/08:00pm 6.5 3.2 2.2 74 1.8 N 9 11 5 6 1026.7 1026.7 0.0
22/07:30pm 7.2 3.4 1.9 69 2.2 N 11 11 6 6 1026.7 1026.7 0.0
22/07:00pm 7.7 4.4 2.4 69 2.2 NNW 9 11 5 6 1026.7 1026.7 0.0
22/06:30pm 8.4 5.7 2.4 66 2.5 N 6 7 3 4 1026.6 1026.6 0.0
22/06:00pm 9.1 6.1 2.2 62 2.9 NW 7 9 4 5 1026.5 1026.5 0.0
22/05:30pm 10.6 7.5 1.4 53 3.8 WNW 7 9 4 5 1026.4 1026.4 0.0
22/05:00pm 12.5 7.8 1.2 46 4.8 WNW 15 17 8 9 1026.2 1026.2 0.0
22/04:30pm 13.5 9.9 3.0 49 4.7 WNW 11 13 6 7 1026.1 1026.1 0.0
22/04:00pm 14.3 10.4 3.2 47 5.0 WNW 13 19 7 10 1026.0 1026.0 0.0
22/03:30pm 15.0 10.2 2.5 43 5.5 WNW 17 20 9 11 1025.9 1025.9 0.0
22/03:00pm 15.4 10.7 2.9 43 5.6 WNW 17 22 9 12 1025.9 1025.9 0.0
22/02:30pm 15.8 11.6 3.6 44 5.6 NW 15 22 8 12 1025.8 1025.8 0.0
22/02:00pm 15.9 12.1 3.7 44 5.6 WNW 13 19 7 10 1025.9 1025.9 0.0
22/01:30pm 16.0 12.8 3.1 42 5.8 WNW 9 13 5 7 1026.1 1026.1 0.0
22/01:00pm 15.9 13.3 4.0 45 5.5 NW 7 11 4 6 1026.4 1026.4 0.0
22/12:30pm 15.6 12.3 4.3 47 5.2 NNW 11 13 6 7 1026.9 1026.9 0.0
22/12:00pm 15.6 12.3 4.3 47 5.2 NNW 11 19 6 10 1027.3 1027.3 0.0
22/11:30am 15.2 11.0 4.0 47 5.1 N 15 19 8 10 1027.7 1027.7 0.0
22/11:00am 15.0 11.3 4.4 49 4.9 NNW 13 17 7 9 1028.1 1028.2 0.0
22/10:30am 14.2 9.7 4.2 51 4.6 NNW 17 20 9 11 1028.4 1028.5 0.0
22/10:00am 13.3 9.3 3.1 50 4.5 NNW 13 17 7 9 1028.6 1028.7 0.0
22/09:30am 12.1 8.1 3.1 54 3.9 N 13 17 7 9 1028.5 1028.6 0.0
22/09:00am 10.4 6.9 3.4 62 3.0 N 11 15 6 8 1028.4 1028.5 0.0
22/08:30am 8.5 4.9 2.7 67 2.4 N 11 13 6 7 1028.3 1028.4 0.0
22/08:00am 7.0 3.3 2.1 71 2.0 NNW 11 13 6 7 1028.2 1028.3 0.0
22/07:30am 6.1 2.0 2.0 75 1.7 NNW 13 17 7 9 1028.0 1028.1 0.0
22/07:00am 5.5 1.8 2.3 80 1.3 N 11 15 6 8 1027.8 1027.9 0.0
22/06:30am 5.1 1.4 2.1 81 1.2 NNW 11 13 6 7 1027.8 1027.9 0.0
22/06:00am 4.7 0.7 2.6 86 0.8 NNW 13 15 7 8 1027.6 1027.6 0.0
22/05:30am 4.5 0.8 2.4 86 0.8 NNW 11 13 6 7 1027.4 1027.4 0.0
22/05:00am 5.0 1.4 3.2 88 0.7 NNW 11 13 6 7 1027.3 1027.3 0.0
22/04:30am 4.7 1.6 3.4 91 0.5 N 9 11 5 6 1027.3 1027.3 0.0
22/04:00am 4.9 2.2 3.6 91 0.5 N 7 9 4 5 1027.6 1027.6 0.0
22/03:30am 5.3 2.7 4.0 91 0.5 N 7 9 4 5 1027.8 1027.9 0.0
22/03:00am 5.6 2.3 4.6 93 0.4 NNW 11 11 6 6 1027.9 1028.0 0.0
22/02:30am 5.6 2.3 4.6 93 0.4 NNW 11 13 6 7 1027.8 1027.9 0.0
22/02:00am 5.9 2.7 5.0 94 0.4 NNW 11 13 6 7 1027.9 1028.0 0.0
22/01:30am 6.4 3.0 5.7 95 0.3 NW 13 15 7 8 1028.0 1028.1 0.0
22/01:00am 6.3 2.8 5.4 94 0.4 NNW 13 15 7 8 1028.2 1028.3 0.0
22/12:30am 6.5 3.1 5.8 95 0.3 NNW 13 15 7 8 1028.5 1028.6 0.0
22/12:00am 6.5 2.6 5.5 93 0.4 NNW 15 15 8 8 1028.8 1028.9 0.0
 
Date/Time
CST
Temp
°C
App
Temp
°C
Dew
Point
°C
Rel
Hum
%
Delta-T
°C
Wind Press
QNH
hPa
Press
MSL
hPa
Rain since
9am
mm
Dir  Spd
km/h
Gust
km/h
Spd
kts
Gust
kts
21/11:30pm 7.1 3.8 6.2 94 0.4 NNW 13 15 7 8 1028.7 1028.8 0.0
21/11:00pm 7.2 3.8 6.0 92 0.5 NNW 13 15 7 8 1028.8 1028.9 0.0
21/10:30pm 7.6 3.8 5.9 89 0.8 NW 15 17 8 9 1028.8 1028.9 0.0
21/10:00pm 7.7 4.3 5.8 88 0.9 NNW 13 13 7 7 1028.9 1029.0 0.0
21/09:30pm 8.1 4.5 6.6 90 0.7 NW 15 17 8 9 1028.9 1029.0 0.0
21/09:00pm 7.7 3.9 6.0 89 0.8 NNW 15 17 8 9 1029.0 1029.1 0.0
21/08:30pm 8.2 5.3 6.5 89 0.8 NW 11 13 6 7 1028.8 1028.9 0.0
21/08:00pm 8.6 5.4 6.7 88 0.9 NW 13 17 7 9 1028.6 1028.7 0.0
21/07:30pm 8.6 6.1 6.7 88 0.9 NW 9 11 5 6 1028.6 1028.7 0.0
21/07:00pm 9.0 7.0 7.0 87 0.9 NW 7 9 4 5 1028.5 1028.6 0.0
21/06:30pm 9.7 7.9 7.0 83 1.3 WSW 6 7 3 4 1028.4 1028.5 0.0
21/06:00pm 10.8 9.0 7.9 82 1.4 WSW 7 9 4 5 1028.2 1028.3 0.0
21/05:30pm 11.4 9.3 8.3 81 1.5 SW 9 13 5 7 1028.1 1028.2 0.0
21/05:00pm 12.1 9.3 8.4 78 1.8 SW 13 15 7 8 1027.9 1028.0 0.0
21/04:30pm 13.4 11.1 8.9 74 2.3 SW 11 15 6 8 1027.7 1027.7 0.0
21/04:00pm 14.2 13.1 6.8 61 3.6 S 2 7 1 4 1027.4 1027.4 0.0
21/03:30pm 14.6 12.6 6.4 58 3.9 SE 6 7 3 4 1027.3 1027.3 0.0
21/03:00pm 15.6 12.8 6.9 56 4.3 ENE 11 17 6 9 1027.2 1027.2 0.0
21/02:30pm 14.8 12.5 5.9 55 4.2 ENE 7 11 4 6 1027.2 1027.2 0.0
21/02:00pm 14.6 12.2 5.4 54 4.4 N 7 11 4 6 1027.3 1027.3 0.0
21/01:30pm 15.3 13.3 6.3 55 4.3 ENE 6 11 3 6 1027.5 1027.5 0.0
21/01:00pm 15.4 14.0 7.4 59 4.0 E 4 9 2 5 1027.9 1028.0 0.0
21/12:30pm 15.1 13.2 6.7 57 4.1 NE 6 11 3 6 1028.2 1028.3 0.0
21/12:00pm 14.6 12.2 7.2 61 3.6 NNE 9 11 5 6 1028.6 1028.7 0.0
21/11:30am 13.4 11.4 7.0 65 3.1 N 7 9 4 5 1029.0 1029.1 0.0
21/11:00am 12.8 10.9 6.8 67 2.9 NNE 6 7 3 4 1029.3 1029.4 0.0
21/10:30am 12.3 11.6 6.8 69 2.6 CALM 0 0 0 0 1029.5 1029.6 0.0
21/10:00am 11.8 10.4 7.1 73 2.3 NE 4 6 2 3 1029.7 1029.8 0.0
21/09:30am 11.6 10.8 6.7 72 2.3 CALM 0 0 0 0 1029.4 1029.5 0.0

Latest Capital City Observations: Canberra | Sydney | Melbourne | Brisbane | Adelaide | Perth | Hobart | Darwin

Other Formats:

Comma delimited format used in spreadsheet applications
http://www.bom.gov.au/fwo/IDS60901/IDS60901.94814.axf

JavaScript Object Notation format (JSON) in row-major order
http://www.bom.gov.au/fwo/IDS60901/IDS60901.94814.json